createdAt,value
2017-09-18T00:01:26.275Z,10.15
2017-09-18T00:03:53.764Z,10.48
2017-09-18T00:06:21.260Z,9.30
2017-09-18T00:08:48.735Z,8.45
2017-09-18T00:11:16.972Z,9.68
2017-09-18T00:13:44.455Z,10.23
2017-09-18T00:16:12.702Z,10.10
2017-09-18T00:18:40.187Z,9.80
2017-09-18T00:21:08.428Z,8.48
2017-09-18T00:23:35.912Z,9.45
2017-09-18T00:26:03.392Z,10.07
2017-09-18T00:28:30.879Z,8.65
2017-09-18T00:30:58.359Z,10.10
2017-09-18T00:33:25.852Z,9.57
2017-09-18T00:35:54.099Z,8.63
2017-09-18T00:38:21.582Z,8.93
2017-09-18T00:40:49.819Z,9.68
2017-09-18T00:43:17.311Z,8.93
2017-09-18T00:45:45.551Z,9.32
2017-09-18T00:48:13.035Z,8.55
2017-09-18T00:50:40.504Z,8.20
2017-09-18T00:53:08.759Z,9.48
2017-09-18T00:55:36.248Z,8.45
2017-09-18T00:58:04.493Z,7.85
2017-09-18T01:00:31.978Z,8.05
2017-09-18T01:02:59.456Z,9.32
2017-09-18T01:05:26.944Z,9.65
2017-09-18T01:07:54.425Z,9.00
2017-09-18T01:10:21.912Z,8.52
2017-09-18T01:12:49.388Z,8.68
2017-09-18T01:15:16.880Z,8.75
2017-09-18T01:17:44.363Z,8.18
2017-09-18T01:20:11.850Z,8.45
2017-09-18T01:22:39.330Z,8.30
2017-09-18T01:25:06.832Z,8.45
2017-09-18T01:27:34.312Z,8.13
2017-09-18T01:30:01.800Z,8.07
2017-09-18T01:32:29.271Z,8.82
2017-09-18T01:34:56.760Z,9.15
2017-09-18T01:37:24.247Z,9.38
2017-09-18T01:39:51.724Z,8.70
2017-09-18T01:42:19.217Z,8.40
2017-09-18T01:44:46.691Z,9.77
2017-09-18T01:47:14.172Z,9.57
2017-09-18T01:49:41.640Z,9.60
2017-09-18T01:52:09.134Z,9.88
2017-09-18T01:54:36.611Z,8.13
2017-09-18T01:57:04.103Z,7.85
2017-09-18T01:59:31.575Z,8.38
2017-09-18T02:01:59.068Z,8.55
2017-09-18T02:04:26.536Z,8.95
2017-09-18T02:06:54.039Z,8.85
2017-09-18T02:09:21.508Z,8.45
2017-09-18T02:11:48.991Z,9.00
2017-09-18T02:14:16.480Z,7.95
2017-09-18T02:16:43.951Z,9.50
2017-09-18T02:19:12.207Z,8.45
2017-09-18T02:21:39.682Z,9.02
2017-09-18T02:24:07.943Z,8.90
2017-09-18T02:26:35.419Z,7.70
2017-09-18T02:29:02.899Z,8.68
2017-09-18T02:31:30.386Z,8.40
2017-09-18T02:33:57.875Z,9.07
2017-09-18T02:36:25.352Z,8.35
2017-09-18T02:38:53.662Z,8.93
2017-09-18T02:41:21.140Z,8.98
2017-09-18T02:43:48.627Z,8.70
2017-09-18T02:46:16.868Z,8.25
2017-09-18T02:48:44.368Z,7.78
2017-09-18T02:51:12.607Z,9.23
2017-09-18T02:53:40.111Z,10.02
2017-09-18T02:56:07.581Z,8.85
2017-09-18T02:58:35.065Z,8.45
2017-09-18T03:01:02.555Z,8.15
2017-09-18T03:03:30.023Z,7.85
2017-09-18T03:05:58.275Z,8.45
2017-09-18T03:08:25.750Z,8.40
2017-09-18T03:10:53.234Z,8.82
2017-09-18T03:13:20.703Z,8.57
2017-09-18T03:15:48.191Z,8.27
2017-09-18T03:18:15.751Z,9.32
2017-09-18T03:20:43.358Z,9.88
2017-09-18T03:23:10.840Z,9.05
2017-09-18T03:25:38.522Z,10.20
2017-09-18T03:28:06.029Z,10.23
2017-09-18T03:30:33.537Z,10.27
2017-09-18T03:33:01.013Z,9.35
2017-09-18T03:35:28.521Z,8.98
2017-09-18T03:37:56.002Z,9.75
2017-09-18T03:40:23.480Z,9.13
2017-09-18T03:42:50.980Z,8.48
2017-09-18T03:45:19.231Z,9.98
2017-09-18T03:47:46.727Z,9.45
2017-09-18T03:50:14.212Z,10.40
2017-09-18T03:52:41.716Z,10.05
2017-09-18T03:55:09.256Z,10.50
2017-09-18T03:57:36.791Z,9.38
2017-09-18T04:00:04.274Z,10.52
2017-09-18T04:02:31.788Z,9.55
2017-09-18T04:04:59.290Z,10.25
2017-09-18T04:07:26.775Z,9.38
2017-09-18T04:09:54.323Z,11.18
2017-09-18T04:12:21.838Z,10.50
2017-09-18T04:14:49.326Z,9.35
2017-09-18T04:17:16.820Z,9.63
2017-09-18T04:19:44.298Z,9.95
2017-09-18T04:22:11.824Z,10.10
2017-09-18T04:24:39.327Z,9.40
2017-09-18T04:27:06.807Z,9.10
2017-09-18T04:29:34.295Z,9.85
2017-09-18T04:32:02.557Z,9.60
2017-09-18T04:34:30.857Z,11.10
2017-09-18T04:36:58.349Z,10.07
2017-09-18T04:39:25.844Z,9.15
2017-09-18T04:41:53.319Z,9.77
2017-09-18T04:44:21.592Z,10.05
2017-09-18T04:46:49.865Z,9.98
2017-09-18T04:49:18.148Z,10.95
2017-09-18T04:51:45.660Z,11.00
2017-09-18T04:54:13.207Z,11.43
2017-09-18T04:56:40.703Z,11.82
2017-09-18T04:59:09.004Z,9.70
2017-09-18T05:01:36.533Z,10.32
2017-09-18T05:04:04.024Z,10.60
2017-09-18T05:06:31.531Z,10.45
2017-09-18T05:08:59.032Z,10.07
2017-09-18T05:11:27.301Z,12.07
2017-09-18T05:13:54.841Z,10.80
2017-09-18T05:16:22.380Z,10.65
2017-09-18T05:18:49.872Z,10.80
2017-09-18T05:21:17.425Z,11.77
2017-09-18T05:23:45.718Z,10.40
2017-09-18T05:26:13.256Z,11.93
2017-09-18T05:28:40.755Z,10.45
2017-09-18T05:31:08.458Z,11.05
2017-09-18T05:33:35.954Z,11.80
2017-09-18T05:36:03.458Z,11.52
2017-09-18T05:38:30.976Z,12.60
2017-09-18T05:40:58.499Z,12.85
2017-09-18T05:43:26.025Z,13.32
2017-09-18T05:45:53.548Z,19.55
2017-09-18T05:48:21.084Z,14.40
2017-09-18T05:50:48.607Z,13.50
2017-09-18T05:53:16.109Z,11.80
2017-09-18T05:55:44.396Z,13.52
2017-09-18T05:58:12.686Z,14.93
2017-09-18T06:00:40.193Z,16.27
2017-09-18T06:03:07.736Z,18.27
2017-09-18T06:05:35.320Z,16.70
2017-09-18T06:08:02.864Z,15.38
2017-09-18T06:10:30.371Z,17.20
2017-09-18T06:12:57.904Z,18.50
2017-09-18T06:15:25.388Z,20.10
2017-09-18T06:17:52.928Z,19.50
2017-09-18T06:20:21.235Z,21.48
2017-09-18T06:22:48.753Z,21.52
2017-09-18T06:25:16.308Z,23.35
2017-09-18T06:27:43.787Z,24.55
2017-09-18T06:30:12.060Z,21.80
2017-09-18T06:32:39.572Z,24.58
2017-09-18T06:35:07.074Z,21.90
2017-09-18T06:37:34.597Z,25.00
2017-09-18T06:40:02.107Z,23.65
2017-09-18T06:42:29.629Z,26.40
2017-09-18T06:44:57.211Z,26.92
2017-09-18T06:47:24.720Z,25.90
2017-09-18T06:49:52.236Z,22.60
2017-09-18T06:52:19.800Z,24.12
2017-09-18T06:54:47.311Z,23.45
2017-09-18T06:57:14.843Z,21.42
2017-09-18T06:59:42.376Z,18.83
2017-09-18T07:02:09.893Z,18.37
2017-09-18T07:04:37.502Z,18.20
2017-09-18T07:07:05.020Z,16.48
2017-09-18T07:09:32.512Z,15.75
2017-09-18T07:12:00.027Z,15.00
2017-09-18T07:14:27.535Z,15.63
2017-09-18T07:16:55.140Z,12.13
2017-09-18T07:19:22.631Z,12.55
2017-09-18T07:21:50.180Z,13.80
2017-09-18T07:24:17.704Z,14.02
2017-09-18T07:26:45.245Z,13.80
2017-09-18T07:29:12.768Z,14.20
2017-09-18T07:31:40.270Z,14.45
2017-09-18T07:34:07.784Z,12.65
2017-09-18T07:36:35.312Z,12.25
2017-09-18T07:39:02.852Z,13.62
2017-09-18T07:41:30.339Z,13.10
2017-09-18T07:43:57.881Z,11.98
2017-09-18T07:46:25.389Z,11.88
2017-09-18T07:48:52.912Z,11.82
2017-09-18T07:51:20.452Z,9.55
2017-09-18T07:53:47.955Z,11.60
2017-09-18T07:56:15.476Z,9.52
2017-09-18T07:58:43.167Z,8.43
2017-09-18T08:01:10.697Z,11.02
2017-09-18T08:03:38.232Z,11.23
2017-09-18T08:06:05.749Z,9.50
2017-09-18T08:08:33.255Z,10.57
2017-09-18T08:11:00.823Z,7.57
2017-09-18T08:13:28.326Z,8.02
2017-09-18T08:15:55.887Z,8.60
2017-09-18T08:18:23.393Z,6.43
2017-09-18T08:20:50.914Z,6.47
2017-09-18T08:23:18.429Z,7.70
2017-09-18T08:25:46.027Z,6.20
2017-09-18T08:28:13.510Z,7.25
2017-09-18T08:30:41.008Z,6.68
2017-09-18T08:33:08.497Z,6.65
2017-09-18T08:35:36.024Z,6.95
2017-09-18T08:38:03.540Z,6.20
2017-09-18T08:40:31.057Z,5.50
2017-09-18T08:42:59.308Z,6.78
2017-09-18T08:45:26.804Z,5.95
2017-09-18T08:47:54.317Z,5.45
2017-09-18T08:50:21.800Z,6.25
2017-09-18T08:52:50.076Z,6.22
2017-09-18T08:55:17.628Z,6.43
2017-09-18T08:57:45.183Z,6.57
2017-09-18T09:00:13.476Z,6.22
2017-09-18T09:02:41.748Z,6.55
2017-09-18T09:05:09.255Z,6.82
2017-09-18T09:07:36.769Z,9.00
2017-09-18T09:10:04.311Z,8.32
2017-09-18T09:12:31.890Z,6.85
2017-09-18T09:14:59.421Z,6.22
2017-09-18T09:17:26.911Z,6.45
2017-09-18T09:19:54.519Z,7.28
2017-09-18T09:22:22.008Z,6.95
2017-09-18T09:24:49.555Z,6.50
2017-09-18T09:27:17.043Z,6.05
2017-09-18T09:29:44.572Z,4.82
2017-09-18T09:32:12.119Z,4.87
2017-09-18T09:34:39.620Z,5.37
2017-09-18T09:37:07.443Z,5.22
2017-09-18T09:39:34.987Z,4.55
2017-09-18T09:42:02.508Z,4.87
2017-09-18T09:44:30.023Z,4.43
2017-09-18T09:46:57.597Z,4.30
2017-09-18T09:49:25.371Z,3.62
2017-09-18T09:51:53.637Z,6.70
2017-09-18T09:54:21.144Z,5.82
2017-09-18T09:56:48.665Z,6.22
2017-09-18T09:59:16.134Z,4.18
2017-09-18T10:01:43.667Z,5.50
2017-09-18T10:04:11.157Z,5.00
2017-09-18T10:06:38.684Z,4.68
2017-09-18T10:09:06.239Z,4.90
2017-09-18T10:11:33.782Z,5.70
2017-09-18T10:14:01.281Z,5.28
2017-09-18T10:16:28.840Z,5.22
2017-09-18T10:18:59.753Z,4.85
2017-09-18T10:21:27.267Z,5.12
2017-09-18T10:23:54.795Z,5.53
2017-09-18T10:26:22.291Z,5.35
2017-09-18T10:28:49.826Z,4.18
2017-09-18T10:31:17.315Z,4.62
2017-09-18T10:33:44.804Z,6.35
2017-09-18T10:36:12.315Z,6.05
2017-09-18T10:38:39.844Z,6.45
2017-09-18T10:41:07.328Z,7.40
2017-09-18T10:43:34.827Z,6.40
2017-09-18T10:46:02.349Z,6.93
2017-09-18T10:48:29.866Z,6.87
2017-09-18T10:50:57.375Z,8.70
2017-09-18T10:53:25.191Z,6.32
2017-09-18T10:55:53.437Z,7.15
2017-09-18T10:58:21.032Z,6.15
2017-09-18T11:00:48.537Z,7.28
2017-09-18T11:03:16.089Z,6.87
2017-09-18T11:05:43.606Z,5.65
2017-09-18T11:08:11.112Z,5.78
2017-09-18T11:10:38.620Z,4.87
2017-09-18T11:13:06.135Z,5.00
2017-09-18T11:15:33.685Z,4.25
2017-09-18T11:18:01.249Z,4.90
2017-09-18T11:20:28.759Z,4.50
2017-09-18T11:22:56.308Z,5.50
2017-09-18T11:25:23.812Z,5.12
2017-09-18T11:27:51.332Z,4.93
2017-09-18T11:30:18.863Z,4.68
2017-09-18T11:32:46.640Z,5.18
2017-09-18T11:35:14.152Z,5.20
2017-09-18T11:37:41.662Z,6.10
2017-09-18T11:40:09.172Z,6.00
2017-09-18T11:42:36.687Z,6.10
2017-09-18T11:45:04.248Z,6.30
2017-09-18T11:47:31.765Z,6.00
2017-09-18T11:49:59.265Z,4.80
2017-09-18T11:52:26.808Z,5.87
2017-09-18T11:54:54.363Z,4.93
2017-09-18T11:57:21.924Z,6.35
2017-09-18T11:59:49.444Z,6.00
2017-09-18T12:02:17.039Z,5.50
2017-09-18T12:04:44.595Z,5.12
2017-09-18T12:07:12.227Z,6.85
2017-09-18T12:09:39.935Z,7.32
2017-09-18T12:12:07.496Z,6.65
2017-09-18T12:14:35.048Z,4.87
2017-09-18T12:17:02.584Z,5.85
2017-09-18T12:19:30.222Z,5.95
2017-09-18T12:21:57.762Z,6.10
2017-09-18T12:24:25.458Z,5.80
2017-09-18T12:26:53.013Z,7.65
2017-09-18T12:29:20.584Z,6.00
2017-09-18T12:31:48.088Z,5.57
2017-09-18T12:34:15.580Z,5.27
2017-09-18T12:36:43.135Z,6.03
2017-09-18T12:39:10.672Z,5.80
2017-09-18T12:41:38.171Z,6.68
2017-09-18T12:44:05.677Z,7.57
2017-09-18T12:46:33.171Z,6.62
2017-09-18T12:49:00.704Z,10.13
2017-09-18T12:51:28.231Z,7.45
2017-09-18T12:53:55.744Z,7.12
2017-09-18T12:56:23.249Z,7.60
2017-09-18T12:58:50.771Z,9.73
2017-09-18T13:01:18.275Z,8.45
2017-09-18T13:03:45.793Z,7.82
2017-09-18T13:06:13.292Z,8.73
2017-09-18T13:08:40.799Z,9.25
2017-09-18T13:11:08.297Z,9.75
2017-09-18T13:13:35.796Z,8.20
2017-09-18T13:16:03.339Z,11.70
2017-09-18T13:18:30.890Z,9.55
2017-09-18T13:20:58.665Z,10.52
2017-09-18T13:23:26.200Z,9.15
2017-09-18T13:25:53.726Z,13.15
2017-09-18T13:28:21.259Z,10.30
2017-09-18T13:30:48.770Z,12.60
2017-09-18T13:33:16.461Z,12.25
2017-09-18T13:35:43.982Z,12.82
2017-09-18T13:38:11.530Z,14.23
2017-09-18T13:40:39.072Z,10.52
2017-09-18T13:43:06.604Z,11.35
2017-09-18T13:45:34.485Z,10.25
2017-09-18T13:48:02.007Z,10.43
2017-09-18T13:50:29.554Z,8.55
2017-09-18T13:52:57.065Z,9.60
2017-09-18T13:55:24.617Z,10.43
2017-09-18T13:57:52.133Z,9.95
2017-09-18T14:00:19.878Z,9.93
2017-09-18T14:02:47.403Z,9.52
2017-09-18T14:05:14.933Z,10.05
2017-09-18T14:07:42.475Z,10.10
2017-09-18T14:10:10.816Z,10.20
2017-09-18T14:12:39.100Z,9.40
2017-09-18T14:15:07.363Z,10.63
2017-09-18T14:17:34.875Z,9.15
2017-09-18T14:20:02.363Z,8.38
2017-09-18T14:22:29.882Z,9.70
2017-09-18T14:24:57.384Z,7.83
2017-09-18T14:27:24.934Z,10.05
2017-09-18T14:29:52.435Z,9.57
2017-09-18T14:32:19.950Z,7.87
2017-09-18T14:34:47.455Z,8.95
2017-09-18T14:37:15.770Z,6.68
2017-09-18T14:39:43.282Z,6.72
2017-09-18T14:42:11.575Z,5.67
2017-09-18T14:44:39.074Z,6.82
2017-09-18T14:47:06.577Z,6.47
2017-09-18T14:49:34.853Z,6.35
2017-09-18T14:52:03.126Z,7.70
2017-09-18T14:54:31.417Z,6.43
2017-09-18T14:56:58.907Z,6.53
2017-09-18T14:59:26.410Z,6.53
2017-09-18T15:01:54.708Z,7.03
2017-09-18T15:04:22.218Z,7.97
2017-09-18T15:06:49.725Z,7.00
2017-09-18T15:09:17.275Z,8.10
2017-09-18T15:11:44.832Z,6.65
2017-09-18T15:14:12.378Z,6.07
2017-09-18T15:16:39.901Z,5.80
2017-09-18T15:19:07.502Z,6.40
2017-09-18T15:21:35.075Z,6.15
2017-09-18T15:24:02.628Z,6.80
2017-09-18T15:26:30.144Z,6.82
2017-09-18T15:28:57.730Z,7.28
2017-09-18T15:31:25.893Z,7.78
2017-09-18T15:33:53.431Z,7.68
2017-09-18T15:36:20.948Z,9.35
2017-09-18T15:38:48.497Z,8.75
2017-09-18T15:41:16.084Z,7.93
2017-09-18T15:43:43.621Z,9.27
2017-09-18T15:46:11.177Z,8.95
2017-09-18T15:48:38.731Z,9.98
2017-09-18T15:51:07.680Z,10.27
2017-09-18T15:53:36.015Z,11.15
2017-09-18T15:56:03.591Z,10.73
2017-09-18T15:58:31.111Z,9.88
2017-09-18T16:00:58.627Z,10.68
2017-09-18T16:03:26.175Z,11.12
2017-09-18T16:05:53.767Z,11.85
2017-09-18T16:08:21.280Z,12.98
2017-09-18T16:10:48.808Z,15.93
2017-09-18T16:13:16.343Z,14.75
2017-09-18T16:15:43.895Z,17.17
2017-09-18T16:18:11.404Z,15.82
2017-09-18T16:20:38.944Z,16.05
2017-09-18T16:23:06.504Z,16.98
2017-09-18T16:25:34.137Z,18.60
2017-09-18T16:28:01.884Z,17.40
2017-09-18T16:30:29.517Z,17.55
2017-09-18T16:32:57.125Z,14.85
2017-09-18T16:35:24.683Z,10.07
2017-09-18T16:37:52.463Z,9.15
2017-09-18T16:40:20.761Z,8.40
2017-09-18T16:42:48.486Z,8.65
2017-09-18T16:45:15.984Z,8.27
2017-09-18T16:47:43.549Z,8.98
2017-09-18T16:50:11.087Z,9.13
2017-09-18T16:52:38.718Z,10.18
2017-09-18T16:55:06.264Z,9.50
2017-09-18T16:57:33.787Z,11.25
2017-09-18T17:00:01.336Z,10.20
2017-09-18T17:02:29.003Z,11.50
2017-09-18T17:04:56.598Z,10.85
2017-09-18T17:07:24.154Z,12.25
2017-09-18T17:09:51.775Z,11.45
2017-09-18T17:12:19.344Z,12.70
2017-09-18T17:14:46.958Z,12.40
2017-09-18T17:17:14.455Z,14.32
2017-09-18T17:19:42.021Z,12.70
2017-09-18T17:22:09.587Z,13.30
2017-09-18T17:24:37.149Z,13.98
2017-09-18T17:27:04.765Z,14.82
2017-09-18T17:29:32.647Z,14.35
2017-09-18T17:32:00.232Z,13.02
2017-09-18T17:34:27.955Z,15.57
2017-09-18T17:36:55.451Z,16.25
2017-09-18T17:39:23.177Z,14.63
2017-09-18T17:41:50.830Z,16.45
2017-09-18T17:44:18.382Z,14.10
2017-09-18T17:46:45.903Z,13.80
2017-09-18T17:49:14.120Z,13.95
2017-09-18T17:51:43.977Z,14.75
2017-09-18T17:54:11.564Z,14.77
2017-09-18T17:56:39.104Z,15.07
2017-09-18T17:59:06.643Z,17.10
2017-09-18T18:01:34.267Z,14.43
2017-09-18T18:04:01.935Z,18.33
2017-09-18T18:06:29.517Z,15.25
2017-09-18T18:08:57.172Z,16.90
2017-09-18T18:11:24.848Z,16.77
2017-09-18T18:13:52.421Z,15.82
2017-09-18T18:16:19.949Z,17.20
2017-09-18T18:18:48.243Z,18.00
2017-09-18T18:21:15.753Z,17.60
2017-09-18T18:23:43.323Z,16.75
2017-09-18T18:26:10.871Z,16.83
2017-09-18T18:28:38.438Z,17.60
2017-09-18T18:31:06.134Z,17.98
2017-09-18T18:33:33.783Z,18.12
2017-09-18T18:36:01.446Z,18.75
2017-09-18T18:38:29.098Z,19.50
2017-09-18T18:40:56.770Z,17.45
2017-09-18T18:43:24.577Z,18.65
2017-09-18T18:45:52.191Z,19.37
2017-09-18T18:48:19.948Z,19.87
2017-09-18T18:50:47.915Z,20.92
2017-09-18T18:53:18.600Z,19.83
2017-09-18T18:55:46.730Z,20.33
2017-09-18T18:58:15.291Z,19.58
2017-09-18T19:00:43.399Z,20.40
2017-09-18T19:03:11.142Z,21.70
2017-09-18T19:05:38.796Z,20.45
2017-09-18T19:08:06.400Z,21.52
2017-09-18T19:10:34.007Z,22.45
2017-09-18T19:13:01.516Z,24.45
2017-09-18T19:15:29.132Z,23.95
2017-09-18T19:17:57.795Z,23.20
2017-09-18T19:20:25.351Z,23.52
2017-09-18T19:22:52.980Z,23.45
2017-09-18T19:25:20.586Z,25.08
2017-09-18T19:27:48.363Z,23.52
2017-09-18T19:30:15.868Z,23.05
2017-09-18T19:32:43.359Z,21.58
2017-09-18T19:35:10.867Z,22.92
2017-09-18T19:37:39.182Z,24.98
2017-09-18T19:40:06.804Z,24.65
2017-09-18T19:42:35.127Z,25.85
2017-09-18T19:45:02.628Z,26.80
2017-09-18T19:47:30.156Z,26.00
2017-09-18T19:49:57.899Z,26.08
2017-09-18T19:52:25.457Z,26.98
2017-09-18T19:54:52.976Z,26.75
2017-09-18T19:57:20.580Z,26.15
2017-09-18T19:59:48.095Z,25.60
2017-09-18T20:02:16.395Z,27.23
2017-09-18T20:04:43.945Z,27.27
2017-09-18T20:07:11.618Z,25.30
2017-09-18T20:09:39.156Z,27.17
2017-09-18T20:12:07.447Z,27.42
2017-09-18T20:14:34.959Z,25.70
2017-09-18T20:17:02.682Z,25.73
2017-09-18T20:19:30.616Z,26.00
2017-09-18T20:21:58.912Z,26.08
2017-09-18T20:24:26.407Z,26.52
2017-09-18T20:26:53.924Z,25.35
2017-09-18T20:29:21.491Z,27.00
2017-09-18T20:31:49.036Z,24.35
2017-09-18T20:34:16.539Z,27.80
2017-09-18T20:36:44.223Z,26.80
2017-09-18T20:39:11.764Z,26.83
2017-09-18T20:41:39.277Z,26.77
2017-09-18T20:44:06.808Z,27.52
2017-09-18T20:46:34.377Z,28.58
2017-09-18T20:49:01.969Z,27.30
2017-09-18T20:51:29.548Z,26.52
2017-09-18T20:53:57.115Z,26.50
2017-09-18T20:56:24.710Z,26.58
2017-09-18T20:58:52.225Z,25.55
2017-09-18T21:01:19.798Z,25.62
2017-09-18T21:03:47.307Z,25.05
2017-09-18T21:06:15.041Z,26.17
2017-09-18T21:08:42.567Z,27.20
2017-09-18T21:11:10.089Z,26.37
2017-09-18T21:13:37.629Z,26.65
2017-09-18T21:16:05.171Z,27.73
2017-09-18T21:18:32.704Z,29.42
2017-09-18T21:21:00.216Z,27.23
2017-09-18T21:23:27.724Z,28.30
2017-09-18T21:25:55.241Z,28.55
2017-09-18T21:28:22.798Z,27.87
2017-09-18T21:30:50.335Z,27.25
2017-09-18T21:33:17.855Z,28.08
2017-09-18T21:35:45.370Z,28.62
2017-09-18T21:38:12.912Z,27.23
2017-09-18T21:40:40.439Z,26.73
2017-09-18T21:43:07.935Z,28.15
2017-09-18T21:45:35.451Z,28.87
2017-09-18T21:48:03.072Z,28.33
2017-09-18T21:50:30.574Z,28.52
2017-09-18T21:52:58.071Z,30.25
2017-09-18T21:55:25.571Z,28.90
2017-09-18T21:57:53.153Z,26.65
2017-09-18T22:00:20.649Z,29.67
2017-09-18T22:02:48.924Z,28.42
2017-09-18T22:05:16.422Z,30.15
2017-09-18T22:07:43.944Z,28.38
2017-09-18T22:10:12.219Z,31.08
2017-09-18T22:12:40.491Z,27.62
2017-09-18T22:15:07.991Z,28.52
2017-09-18T22:17:35.547Z,27.75
2017-09-18T22:20:03.058Z,29.35
2017-09-18T22:22:30.582Z,27.40
2017-09-18T22:24:58.138Z,27.85
2017-09-18T22:27:25.653Z,27.90
2017-09-18T22:29:53.143Z,27.65
2017-09-18T22:32:20.696Z,27.80
2017-09-18T22:34:48.199Z,27.90
2017-09-18T22:37:15.689Z,27.87
2017-09-18T22:39:43.211Z,26.40
2017-09-18T22:42:10.716Z,26.45
2017-09-18T22:44:38.248Z,27.85
2017-09-18T22:47:06.525Z,28.52
2017-09-18T22:49:34.062Z,28.23
2017-09-18T22:52:01.581Z,28.33
2017-09-18T22:54:29.096Z,30.83
2017-09-18T22:56:56.603Z,27.62
2017-09-18T22:59:24.129Z,30.62
2017-09-18T23:01:52.379Z,26.80
2017-09-18T23:04:20.685Z,28.10
2017-09-18T23:06:48.197Z,29.77
2017-09-18T23:09:15.685Z,26.48
2017-09-18T23:11:43.217Z,27.10
2017-09-18T23:14:10.704Z,27.30
2017-09-18T23:16:38.208Z,27.15
2017-09-18T23:19:05.703Z,28.92
2017-09-18T23:21:33.982Z,27.75
2017-09-18T23:24:02.259Z,27.73
2017-09-18T23:26:29.780Z,27.87
2017-09-18T23:28:57.271Z,25.73
2017-09-18T23:31:24.788Z,26.85
2017-09-18T23:33:52.281Z,24.95
2017-09-18T23:36:20.543Z,25.73
2017-09-18T23:38:48.027Z,25.30
2017-09-18T23:41:16.295Z,25.70
2017-09-18T23:43:44.555Z,25.27
2017-09-18T23:46:12.087Z,24.80
2017-09-18T23:48:39.567Z,25.52
2017-09-18T23:51:07.049Z,25.42
2017-09-18T23:53:35.322Z,25.23
2017-09-18T23:56:02.819Z,24.63
2017-09-18T23:58:30.320Z,25.77
